Time;durP1;ratioP1;P1;durP2;ratioP2;P2;SDS_P1;SDS_P2;PMS_P1;PMS_P2;Temp;Humidity;BMP_temperature;BMP_pressure;BME280_temperature;BME280_humidity;BME280_pressure;Samples;Min_cycle;Max_cycle;Signal;HPM_P1;HPM_P2
2023/09/06 00:00:55;;;;;;;6.37;5.97;;;17.30;73.50;;;;;;6207638;28;20239;-82
2023/09/06 00:03:58;;;;;;;5.97;5.57;;;17.20;73.70;;;;;;6210347;28;20239;-82
2023/09/06 00:07:03;;;;;;;6.03;5.67;;;17.20;73.70;;;;;;6198325;28;20310;-82
2023/09/06 00:10:07;;;;;;;7.33;6.93;;;17.20;73.80;;;;;;6213461;28;20235;-83
2023/09/06 00:13:13;;;;;;;6.30;6.00;;;17.20;74.40;;;;;;6193740;28;20238;-84
2023/09/06 00:16:16;;;;;;;6.93;6.43;;;17.20;74.30;;;;;;6204229;28;20246;-84
2023/09/06 00:19:20;;;;;;;6.57;6.27;;;17.20;74.30;;;;;;6210277;28;20235;-83
2023/09/06 00:22:26;;;;;;;5.80;5.50;;;17.20;74.30;;;;;;6212380;28;20235;-84
2023/09/06 00:25:31;;;;;;;5.90;5.70;;;17.20;74.40;;;;;;6199467;28;20262;-86
2023/09/06 00:37:20;;;;;;;7.00;6.60;;;17.10;74.70;;;;;;6175074;28;20641;-84
2023/09/06 00:40:23;;;;;;;6.40;5.87;;;17.00;74.70;;;;;;6187915;28;20228;-87
2023/09/06 00:43:27;;;;;;;6.27;5.90;;;17.00;74.80;;;;;;6191697;28;20235;-82
2023/09/06 00:46:30;;;;;;;6.10;5.80;;;17.00;74.70;;;;;;6198916;28;20239;-82
2023/09/06 00:49:33;;;;;;;6.03;5.73;;;17.00;74.70;;;;;;6212492;28;20266;-84
2023/09/06 00:52:38;;;;;;;5.60;5.40;;;17.00;74.70;;;;;;6207930;28;20262;-81
2023/09/06 00:55:41;;;;;;;5.53;5.23;;;17.00;74.80;;;;;;6213269;28;20243;-84
2023/09/06 00:58:46;;;;;;;5.40;5.20;;;16.90;74.80;;;;;;6207221;28;20779;-84
2023/09/06 01:01:49;;;;;;;5.37;5.17;;;16.90;74.80;;;;;;6198675;28;20333;-87
2023/09/06 01:04:53;;;;;;;5.70;5.30;;;16.90;74.70;;;;;;6192055;28;20243;-84
2023/09/06 01:08:01;;;;;;;6.30;6.00;;;16.90;74.70;;;;;;6205482;28;20239;-83
2023/09/06 01:11:18;;;;;;;5.60;5.40;;;16.90;74.70;;;;;;6209866;28;20707;-84
2023/09/06 01:14:22;;;;;;;5.30;5.10;;;16.80;74.70;;;;;;6209608;28;20239;-83
2023/09/06 01:17:29;;;;;;;5.80;5.50;;;16.80;74.80;;;;;;6190536;28;20603;-84
2023/09/06 01:20:36;;;;;;;5.97;5.77;;;16.80;75.00;;;;;;6212397;28;20243;-84
2023/09/06 01:23:42;;;;;;;5.23;5.07;;;16.70;75.10;;;;;;6199925;28;20899;-83
2023/09/06 01:26:46;;;;;;;7.70;7.10;;;16.70;75.10;;;;;;6207825;28;20358;-84
2023/09/06 01:29:49;;;;;;;6.50;6.10;;;16.70;75.70;;;;;;6205998;28;20239;-85
2023/09/06 01:32:52;;;;;;;7.00;6.63;;;16.70;75.40;;;;;;6200847;28;20247;-85
2023/09/06 01:35:56;;;;;;;5.93;5.73;;;16.70;75.50;;;;;;6212495;28;20235;-85
2023/09/06 01:39:00;;;;;;;6.17;5.77;;;16.70;75.50;;;;;;6214550;28;20287;-82
2023/09/06 01:42:04;;;;;;;5.77;5.47;;;16.70;75.40;;;;;;6182920;28;20252;-85
2023/09/06 01:45:08;;;;;;;6.00;5.60;;;16.60;75.40;;;;;;6181956;28;20232;-83
2023/09/06 01:48:11;;;;;;;5.70;5.40;;;16.60;75.40;;;;;;6189703;28;20243;-84
2023/09/06 01:51:15;;;;;;;5.67;5.47;;;16.60;75.40;;;;;;6180021;28;20355;-82
2023/09/06 01:54:21;;;;;;;5.87;5.60;;;16.50;75.40;;;;;;6173866;28;20229;-83
2023/09/06 01:57:24;;;;;;;6.07;5.77;;;16.50;75.60;;;;;;6180125;28;20235;-84
2023/09/06 02:00:29;;;;;;;6.50;6.10;;;16.50;75.70;;;;;;6205319;28;20576;-82
2023/09/06 02:03:34;;;;;;;6.33;6.03;;;16.50;75.80;;;;;;6201713;28;20246;-84
2023/09/06 02:06:38;;;;;;;5.23;5.13;;;16.40;75.90;;;;;;6199416;28;20248;-85
2023/09/06 02:09:42;;;;;;;5.90;5.67;;;16.40;75.90;;;;;;6205147;28;20318;-84
2023/09/06 02:12:46;;;;;;;6.00;5.60;;;16.40;75.90;;;;;;6213534;28;20224;-82
2023/09/06 02:15:49;;;;;;;7.07;6.70;;;16.40;76.00;;;;;;6210219;28;20235;-82
2023/09/06 02:18:52;;;;;;;7.03;6.63;;;16.30;76.20;;;;;;6201276;28;20286;-84
2023/09/06 02:21:55;;;;;;;5.83;5.63;;;16.20;76.30;;;;;;6206913;28;20240;-82
2023/09/06 02:25:01;;;;;;;6.57;6.33;;;16.20;76.30;;;;;;6204046;28;20235;-84
2023/09/06 02:28:05;;;;;;;6.30;6.00;;;16.20;76.40;;;;;;6192117;28;20251;-85
2023/09/06 02:31:08;;;;;;;6.10;5.80;;;16.10;76.40;;;;;;6197147;28;20235;-82
2023/09/06 02:34:11;;;;;;;5.80;5.40;;;16.10;76.50;;;;;;6187649;28;20232;-82
2023/09/06 02:37:15;;;;;;;6.20;5.87;;;16.10;76.50;;;;;;6209881;28;20227;-83
2023/09/06 02:40:20;;;;;;;6.07;5.77;;;16.00;76.50;;;;;;6204004;28;20235;-82
2023/09/06 02:43:24;;;;;;;6.40;6.10;;;16.00;76.50;;;;;;6192954;28;20648;-80
2023/09/06 02:46:29;;;;;;;5.90;5.70;;;16.00;76.60;;;;;;6203698;28;20247;-84
2023/09/06 02:49:32;;;;;;;6.13;5.83;;;16.00;76.60;;;;;;6200264;28;20738;-83
2023/09/06 02:52:36;;;;;;;6.47;6.13;;;16.00;76.70;;;;;;6205877;28;20318;-84
2023/09/06 02:55:41;;;;;;;7.63;7.20;;;16.00;76.80;;;;;;6211643;28;20242;-83
2023/09/06 02:58:45;;;;;;;6.97;6.57;;;15.90;77.00;;;;;;6204393;28;20309;-82
2023/09/06 03:01:50;;;;;;;8.60;7.90;;;15.90;77.10;;;;;;6205360;28;20317;-82
2023/09/06 03:05:03;;;;;;;7.83;7.33;;;15.90;77.20;;;;;;6186108;28;20231;-85
2023/09/06 03:08:06;;;;;;;8.00;7.27;;;15.90;77.10;;;;;;6182942;28;20240;-82
2023/09/06 03:11:14;;;;;;;6.97;6.67;;;16.00;77.20;;;;;;6178069;28;20239;-85
2023/09/06 03:14:20;;;;;;;8.23;7.77;;;16.00;77.10;;;;;;6187690;28;20246;-82
2023/09/06 03:17:24;;;;;;;7.50;7.10;;;15.90;77.30;;;;;;6184420;28;20625;-82
2023/09/06 03:20:33;;;;;;;6.70;6.30;;;15.90;77.20;;;;;;6198564;28;20738;-83
2023/09/06 03:23:38;;;;;;;6.73;6.33;;;15.90;77.10;;;;;;6214129;28;20235;-83
2023/09/06 03:26:44;;;;;;;5.83;5.63;;;15.80;77.10;;;;;;6209244;28;20236;-84
2023/09/06 03:29:51;;;;;;;6.70;6.30;;;15.80;77.00;;;;;;6207122;28;20857;-84
2023/09/06 03:32:55;;;;;;;6.33;6.13;;;15.80;77.00;;;;;;6204284;28;20659;-82
2023/09/06 03:35:58;;;;;;;6.67;6.37;;;15.80;77.00;;;;;;6220356;28;20318;-81
2023/09/06 03:39:05;;;;;;;6.13;5.83;;;15.70;77.10;;;;;;6210856;28;20240;-87
2023/09/06 03:42:14;;;;;;;6.17;5.87;;;15.70;77.10;;;;;;6212795;28;20656;-85
2023/09/06 03:45:21;;;;;;;6.63;6.23;;;15.60;77.10;;;;;;6216402;28;20231;-86
2023/09/06 03:48:26;;;;;;;6.93;6.53;;;15.60;77.00;;;;;;6195753;28;20750;-85
2023/09/06 03:51:31;;;;;;;7.50;7.03;;;15.60;77.10;;;;;;6216224;28;20606;-85
2023/09/06 03:54:35;;;;;;;7.47;7.07;;;15.60;77.20;;;;;;6218799;28;20754;-83
2023/09/06 03:57:40;;;;;;;7.07;6.67;;;15.50;77.20;;;;;;6209165;28;20331;-84
2023/09/06 04:00:44;;;;;;;7.33;6.83;;;15.60;77.20;;;;;;6213818;28;20305;-84
2023/09/06 04:03:50;;;;;;;6.90;6.60;;;15.50;77.30;;;;;;6223865;28;20236;-86
2023/09/06 04:06:54;;;;;;;6.77;6.47;;;15.50;77.30;;;;;;6228266;28;20659;-85
2023/09/06 04:10:01;;;;;;;7.00;6.70;;;15.50;77.40;;;;;;6230288;28;20247;-87
2023/09/06 04:13:09;;;;;;;7.73;7.33;;;15.50;77.40;;;;;;6210463;28;20235;-84
2023/09/06 04:16:13;;;;;;;6.93;6.47;;;15.50;77.40;;;;;;6187511;28;20243;-84
2023/09/06 04:19:18;;;;;;;8.50;7.87;;;15.40;77.40;;;;;;6208283;28;20240;-85
2023/09/06 04:22:21;;;;;;;7.20;6.80;;;15.40;77.50;;;;;;6218747;28;20286;-86
2023/09/06 04:25:26;;;;;;;7.67;7.23;;;15.50;77.50;;;;;;6212407;28;20318;-86
2023/09/06 04:28:31;;;;;;;7.27;6.87;;;15.50;77.40;;;;;;6205083;28;20239;-86
2023/09/06 04:31:35;;;;;;;6.00;5.80;;;15.50;77.30;;;;;;6212569;28;20235;-85
2023/09/06 04:34:38;;;;;;;7.57;7.17;;;15.50;77.30;;;;;;6234046;28;20311;-84
2023/09/06 04:37:41;;;;;;;7.77;7.23;;;15.50;77.30;;;;;;6235576;28;20231;-85
2023/09/06 04:40:46;;;;;;;7.40;7.00;;;15.50;77.30;;;;;;6244158;28;20279;-86
2023/09/06 04:43:51;;;;;;;7.37;6.97;;;15.50;77.20;;;;;;6228549;28;20505;-84
2023/09/06 04:46:55;;;;;;;7.63;7.23;;;15.50;77.20;;;;;;6233161;28;20311;-85
2023/09/06 04:49:58;;;;;;;7.63;7.13;;;15.50;77.40;;;;;;6232639;28;20239;-83
2023/09/06 04:53:02;;;;;;;9.13;8.23;;;15.50;77.30;;;;;;6233541;28;20242;-85
2023/09/06 04:56:05;;;;;;;9.87;9.20;;;15.50;77.40;;;;;;6234506;28;20231;-84
2023/09/06 04:59:10;;;;;;;9.03;8.33;;;15.50;77.30;;;;;;6231662;28;20239;-84
2023/09/06 05:02:15;;;;;;;7.80;7.40;;;15.60;77.20;;;;;;6225284;28;20244;-83
2023/09/06 05:05:20;;;;;;;7.13;6.80;;;15.60;77.10;;;;;;6219492;28;20285;-82
2023/09/06 05:08:23;;;;;;;7.57;7.17;;;15.60;77.00;;;;;;6211207;28;20239;-81
2023/09/06 05:11:27;;;;;;;7.33;6.93;;;15.60;76.90;;;;;;6213923;28;20324;-81
2023/09/06 05:14:31;;;;;;;7.40;7.00;;;15.60;76.90;;;;;;6225001;28;20231;-81
2023/09/06 05:17:34;;;;;;;8.77;7.97;;;15.70;76.80;;;;;;6224402;28;20271;-80
2023/09/06 05:20:39;;;;;;;8.20;7.70;;;15.70;76.70;;;;;;6210494;28;20286;-81
2023/09/06 05:23:42;;;;;;;7.80;7.33;;;15.80;76.70;;;;;;6228526;28;20251;-82
2023/09/06 05:26:46;;;;;;;7.70;7.10;;;15.80;76.60;;;;;;6224604;28;20841;-82
2023/09/06 05:29:50;;;;;;;8.50;7.87;;;15.80;76.60;;;;;;6210744;28;20238;-79
2023/09/06 05:32:55;;;;;;;10.13;9.23;;;15.80;76.50;;;;;;6211936;28;20259;-81
2023/09/06 05:35:58;;;;;;;9.07;8.27;;;15.80;76.50;;;;;;6223633;28;20247;-80
2023/09/06 05:39:06;;;;;;;10.10;9.20;;;15.90;76.50;;;;;;6210687;28;20248;-78
2023/09/06 05:42:09;;;;;;;10.57;9.47;;;16.00;76.40;;;;;;6210554;28;20253;-80
2023/09/06 05:45:14;;;;;;;9.57;8.67;;;16.00;76.10;;;;;;6213381;28;20673;-79
2023/09/06 05:48:17;;;;;;;10.57;9.53;;;16.00;76.00;;;;;;6206202;28;20322;-80
2023/09/06 05:51:21;;;;;;;9.83;8.97;;;16.10;75.70;;;;;;6224712;28;20314;-80
2023/09/06 05:54:24;;;;;;;9.63;8.83;;;16.10;75.50;;;;;;6222502;28;20346;-78
2023/09/06 05:57:29;;;;;;;8.87;8.27;;;16.20;75.40;;;;;;6225300;28;20691;-78
2023/09/06 06:00:34;;;;;;;8.73;8.13;;;16.40;75.20;;;;;;6215879;28;20344;-76
2023/09/06 06:03:39;;;;;;;9.10;8.30;;;16.40;74.80;;;;;;6219352;28;20239;-80
2023/09/06 06:06:42;;;;;;;8.93;8.20;;;16.50;74.50;;;;;;6217168;28;20250;-80
2023/09/06 06:09:46;;;;;;;9.80;8.90;;;16.70;74.30;;;;;;6221080;28;20872;-82
2023/09/06 06:12:49;;;;;;;9.10;8.17;;;17.10;75.10;;;;;;6206689;28;20329;-80
2023/09/06 06:15:53;;;;;;;9.17;7.80;;;18.20;71.60;;;;;;6194729;28;20244;-81
2023/09/06 06:18:57;;;;;;;7.83;7.23;;;18.60;69.90;;;;;;6199468;28;20239;-81
2023/09/06 06:22:01;;;;;;;8.20;7.70;;;18.60;69.10;;;;;;6199185;28;20247;-79
2023/09/06 06:25:05;;;;;;;11.77;8.43;;;18.60;69.20;;;;;;6205654;28;20787;-77
2023/09/06 06:28:08;;;;;;;8.07;7.50;;;18.60;68.80;;;;;;6209873;28;20646;-80
2023/09/06 06:31:13;;;;;;;8.93;8.10;;;18.60;68.60;;;;;;6204410;28;20699;-81
2023/09/06 06:34:18;;;;;;;8.40;7.80;;;18.70;68.50;;;;;;6210622;28;20540;-80
2023/09/06 06:37:22;;;;;;;8.40;7.80;;;18.60;68.60;;;;;;6201468;28;20625;-78
2023/09/06 06:40:26;;;;;;;8.57;7.97;;;18.60;68.70;;;;;;6219527;28;20311;-78
2023/09/06 06:43:33;;;;;;;9.57;8.67;;;18.60;68.80;;;;;;6202095;28;20748;-78
2023/09/06 06:46:39;;;;;;;9.20;8.40;;;18.60;68.70;;;;;;6204408;28;20345;-81
2023/09/06 06:49:42;;;;;;;9.07;7.90;;;18.60;68.70;;;;;;6203744;28;20239;-78
2023/09/06 06:52:45;;;;;;;8.80;8.10;;;18.60;68.50;;;;;;6185486;28;20242;-76
2023/09/06 06:55:48;;;;;;;8.20;7.37;;;19.00;69.50;;;;;;6207001;28;20326;-79
2023/09/06 06:58:52;;;;;;;9.83;8.83;;;20.00;66.50;;;;;;6211133;28;20246;-81
2023/09/06 07:01:56;;;;;;;8.67;7.97;;;20.30;65.20;;;;;;6199883;28;20243;-79
2023/09/06 07:04:59;;;;;;;10.07;8.37;;;20.10;65.10;;;;;;6208174;28;20235;-78
2023/09/06 07:08:04;;;;;;;9.17;8.37;;;20.00;65.00;;;;;;6203890;28;20613;-76
2023/09/06 07:11:07;;;;;;;8.37;7.50;;;19.90;65.40;;;;;;6211267;28;20239;-78
2023/09/06 07:14:12;;;;;;;12.50;10.33;;;19.80;65.90;;;;;;6212327;28;20231;-76
2023/09/06 07:17:17;;;;;;;13.10;10.27;;;19.70;66.00;;;;;;6203751;28;20326;-76
2023/09/06 07:20:20;;;;;;;10.70;9.40;;;19.50;66.40;;;;;;6207720;28;20239;-80
2023/09/06 07:23:24;;;;;;;12.27;9.70;;;19.50;66.40;;;;;;6215637;28;20246;-78
2023/09/06 07:26:27;;;;;;;10.20;8.90;;;19.50;66.30;;;;;;6206796;28;20235;-77
2023/09/06 07:29:30;;;;;;;9.23;8.60;;;19.50;66.50;;;;;;6202056;28;20236;-79
2023/09/06 07:32:34;;;;;;;8.30;7.63;;;19.70;66.50;;;;;;6206799;28;20235;-80
2023/09/06 07:35:37;;;;;;;9.90;8.90;;;19.70;66.20;;;;;;6202040;28;20317;-81
2023/09/06 07:38:41;;;;;;;8.10;7.40;;;19.80;65.80;;;;;;6211018;28;20235;-79
2023/09/06 07:41:44;;;;;;;8.37;7.60;;;19.90;65.60;;;;;;6194655;28;20243;-82
2023/09/06 07:44:47;;;;;;;9.20;8.27;;;20.00;65.60;;;;;;6208084;28;20263;-80
2023/09/06 07:47:54;;;;;;;10.13;9.13;;;20.00;65.40;;;;;;6201417;28;20818;-81
2023/09/06 07:50:58;;;;;;;7.90;7.40;;;20.10;65.00;;;;;;6212804;28;20261;-82
2023/09/06 07:54:01;;;;;;;11.90;9.10;;;20.20;65.10;;;;;;6204963;28;20332;-79
2023/09/06 07:57:04;;;;;;;11.50;8.37;;;20.30;64.80;;;;;;6210322;28;20752;-77
2023/09/06 08:00:09;;;;;;;9.43;8.50;;;20.50;64.40;;;;;;6207615;28;23090;-80
2023/09/06 08:03:14;;;;;;;8.57;7.83;;;20.70;63.10;;;;;;6212267;28;20707;-81
2023/09/06 08:06:17;;;;;;;13.00;9.77;;;20.80;63.20;;;;;;6214556;28;20254;-82
2023/09/06 08:09:20;;;;;;;9.60;8.73;;;20.80;63.10;;;;;;6209998;28;20250;-79
2023/09/06 08:12:24;;;;;;;8.03;7.43;;;20.90;63.20;;;;;;6212120;28;20382;-82
2023/09/06 08:15:27;;;;;;;9.50;8.70;;;21.00;63.20;;;;;;6212894;28;20731;-82
2023/09/06 08:18:31;;;;;;;9.77;8.80;;;21.10;63.20;;;;;;6210897;28;20239;-77
2023/09/06 08:21:35;;;;;;;13.17;8.47;;;21.20;62.60;;;;;;6210123;28;20235;-81
2023/09/06 08:24:38;;;;;;;8.13;7.43;;;21.40;62.30;;;;;;6211810;28;20269;-80
2023/09/06 08:27:45;;;;;;;10.00;8.80;;;21.50;62.40;;;;;;6209039;28;20851;-79
2023/09/06 08:30:48;;;;;;;9.57;8.70;;;21.60;61.40;;;;;;6210969;28;20955;-80
2023/09/06 08:33:54;;;;;;;9.53;8.67;;;21.70;61.20;;;;;;6208144;28;20241;-80
2023/09/06 08:36:57;;;;;;;8.90;8.20;;;21.90;60.50;;;;;;6212081;28;20231;-78
2023/09/06 08:40:00;;;;;;;12.40;9.23;;;22.00;60.40;;;;;;6211055;28;20231;-79
2023/09/06 08:43:05;;;;;;;10.73;9.00;;;22.10;59.60;;;;;;6210423;28;20231;-80
2023/09/06 08:46:14;;;;;;;9.03;7.90;;;22.20;59.10;;;;;;6201839;28;20906;-80
2023/09/06 08:49:19;;;;;;;12.80;8.60;;;22.30;59.40;;;;;;6204096;28;20244;-80
2023/09/06 08:52:23;;;;;;;8.90;8.17;;;22.50;59.30;;;;;;6211197;28;20231;-79
2023/09/06 08:55:27;;;;;;;9.87;8.93;;;22.60;59.60;;;;;;6206608;28;20246;-78
2023/09/06 08:58:32;;;;;;;10.20;8.57;;;22.80;58.70;;;;;;6208575;28;20232;-80
2023/09/06 09:01:37;;;;;;;9.90;8.50;;;23.00;58.50;;;;;;6199550;28;20380;-82
2023/09/06 09:04:43;;;;;;;8.90;8.20;;;23.10;58.90;;;;;;6209513;28;20243;-82
2023/09/06 09:07:47;;;;;;;8.57;7.57;;;23.30;58.70;;;;;;6203578;28;20254;-82
2023/09/06 09:11:08;;;;;;;9.00;7.97;;;23.40;58.20;;;;;;6210536;28;20223;-80
2023/09/06 09:14:19;;;;;;;11.40;7.80;;;23.60;58.00;;;;;;6199823;28;20311;-79
2023/09/06 09:17:25;;;;;;;8.40;7.60;;;23.60;56.90;;;;;;6212866;28;20235;-80
2023/09/06 09:20:32;;;;;;;10.20;7.97;;;23.60;57.00;;;;;;6209882;28;20239;-80
2023/09/06 09:23:43;;;;;;;8.57;7.73;;;23.70;56.30;;;;;;6203457;28;20294;-81
2023/09/06 09:26:46;;;;;;;7.73;7.03;;;23.90;56.50;;;;;;6199321;28;20239;-80
2023/09/06 09:29:49;;;;;;;8.23;7.40;;;23.90;55.50;;;;;;6210197;28;20428;-80
2023/09/06 09:32:58;;;;;;;7.63;7.00;;;24.00;55.20;;;;;;6193697;28;20350;-80
2023/09/06 09:36:05;;;;;;;8.00;6.97;;;24.20;54.80;;;;;;6206775;28;20331;-80
2023/09/06 09:39:13;;;;;;;7.23;6.60;;;24.20;55.10;;;;;;6208715;28;20699;-78
2023/09/06 09:42:16;;;;;;;7.83;7.40;;;24.40;54.70;;;;;;6209301;28;20239;-78
2023/09/06 09:45:20;;;;;;;7.60;7.03;;;24.60;54.50;;;;;;6200736;28;20235;-79
2023/09/06 09:48:25;;;;;;;8.30;6.83;;;24.70;54.50;;;;;;6209573;28;20243;-80
2023/09/06 09:51:33;;;;;;;6.90;6.50;;;24.80;53.60;;;;;;6201024;28;20239;-82
2023/09/06 09:54:39;;;;;;;7.57;7.17;;;25.00;54.30;;;;;;6205996;28;20267;-79
2023/09/06 09:57:43;;;;;;;7.10;6.70;;;24.90;53.60;;;;;;6209336;28;20262;-79
2023/09/06 10:00:49;;;;;;;6.93;6.63;;;25.00;53.90;;;;;;6208781;28;20767;-79
2023/09/06 10:03:57;;;;;;;7.17;6.77;;;25.10;53.20;;;;;;6209690;28;20239;-78
2023/09/06 10:07:04;;;;;;;7.87;7.33;;;25.20;53.20;;;;;;6206271;28;20314;-78
2023/09/06 10:10:11;;;;;;;7.60;7.10;;;25.30;52.10;;;;;;6204778;28;20239;-80
2023/09/06 10:13:18;;;;;;;7.83;7.20;;;25.30;52.00;;;;;;6198271;28;20238;-77
2023/09/06 10:16:22;;;;;;;7.60;6.90;;;25.30;52.40;;;;;;6211949;28;20239;-78
2023/09/06 10:19:27;;;;;;;6.43;6.13;;;25.50;52.00;;;;;;6205218;28;20243;-80
2023/09/06 10:22:43;;;;;;;8.63;6.70;;;25.60;52.50;;;;;;6211705;28;20728;-80
2023/09/06 10:25:53;;;;;;;8.27;7.27;;;25.80;53.00;;;;;;6209865;28;20235;-79
2023/09/06 10:28:59;;;;;;;6.93;6.53;;;25.90;51.30;;;;;;6212015;28;20250;-78
2023/09/06 10:32:07;;;;;;;7.27;6.77;;;25.80;51.50;;;;;;6196079;28;20258;-78
2023/09/06 10:35:24;;;;;;;7.77;7.17;;;26.00;51.30;;;;;;6206420;28;20243;-78
2023/09/06 10:38:30;;;;;;;7.03;6.27;;;26.10;51.80;;;;;;6202781;28;20257;-79
2023/09/06 10:41:33;;;;;;;7.00;6.43;;;26.20;52.10;;;;;;6201417;28;22170;-77
2023/09/06 10:45:14;;;;;;;7.37;6.97;;;26.40;51.30;;;;;;6206110;28;20903;-81
2023/09/06 10:48:17;;;;;;;6.90;6.37;;;26.50;50.80;;;;;;6199883;28;20381;-80
2023/09/06 10:51:20;;;;;;;7.07;6.40;;;26.70;51.10;;;;;;6204396;28;20231;-80
2023/09/06 10:54:25;;;;;;;6.33;5.73;;;26.80;51.20;;;;;;6210721;28;20341;-80
2023/09/06 10:57:51;;;;;;;6.53;6.00;;;27.00;49.70;;;;;;6206247;28;20867;-80
2023/09/06 11:01:16;;;;;;;6.43;5.90;;;27.00;49.20;;;;;;6197515;28;20748;-78
2023/09/06 11:04:26;;;;;;;7.97;6.67;;;27.00;49.50;;;;;;6207444;28;20684;-80
2023/09/06 11:07:38;;;;;;;6.30;6.00;;;27.10;49.90;;;;;;6199014;28;20235;-81
2023/09/06 11:10:54;;;;;;;8.37;7.57;;;27.10;50.40;;;;;;6199525;28;20250;-79
2023/09/06 11:14:03;;;;;;;6.93;6.00;;;27.30;50.00;;;;;;6206473;28;20322;-78
2023/09/06 11:17:08;;;;;;;6.93;6.53;;;27.50;49.00;;;;;;6201833;28;20246;-80
2023/09/06 11:20:13;;;;;;;6.93;6.47;;;27.40;47.60;;;;;;6190806;28;20298;-77
2023/09/06 11:23:16;;;;;;;10.23;6.87;;;27.10;48.30;;;;;;6205555;28;20246;-79
2023/09/06 11:26:21;;;;;;;5.73;5.53;;;27.20;48.80;;;;;;6210619;28;20261;-77
2023/09/06 11:29:28;;;;;;;6.47;5.97;;;27.40;49.00;;;;;;6209020;28;20231;-80
2023/09/06 11:32:32;;;;;;;5.83;5.53;;;27.50;48.40;;;;;;6208458;28;20239;-78
2023/09/06 11:35:39;;;;;;;7.17;6.73;;;27.60;47.20;;;;;;6209151;28;20239;-78
2023/09/06 11:38:45;;;;;;;6.70;5.93;;;27.60;47.20;;;;;;6203537;28;20357;-80
2023/09/06 11:41:50;;;;;;;6.30;5.80;;;27.70;46.50;;;;;;6219738;28;20306;-80
2023/09/06 11:44:55;;;;;;;9.03;6.87;;;27.80;46.00;;;;;;6209370;28;20252;-80
2023/09/06 11:48:04;;;;;;;6.30;6.00;;;27.80;46.20;;;;;;6208093;28;20286;-82
2023/09/06 11:51:10;;;;;;;5.23;5.03;;;27.80;46.60;;;;;;6217706;28;20236;-81
2023/09/06 11:54:13;;;;;;;6.30;5.83;;;27.90;45.50;;;;;;6205762;28;20308;-80
2023/09/06 11:57:23;;;;;;;5.77;5.40;;;28.00;46.00;;;;;;6210844;28;20385;-78
2023/09/06 12:00:43;;;;;;;5.77;5.50;;;28.10;46.70;;;;;;6204078;28;20343;-79
2023/09/06 12:03:48;;;;;;;5.57;5.13;;;28.10;45.60;;;;;;6208227;28;20231;-78
2023/09/06 12:06:52;;;;;;;7.97;5.93;;;28.10;45.80;;;;;;6208461;28;20790;-79
2023/09/06 12:09:57;;;;;;;5.40;5.00;;;28.10;46.70;;;;;;6207338;28;20608;-79
2023/09/06 12:13:05;;;;;;;5.67;5.43;;;28.10;47.10;;;;;;6210555;28;20243;-79
2023/09/06 12:16:11;;;;;;;5.87;5.47;;;28.30;46.00;;;;;;6209439;28;20244;-79
2023/09/06 12:19:16;;;;;;;5.93;5.53;;;28.10;46.20;;;;;;6209440;28;20235;-79
2023/09/06 12:22:21;;;;;;;5.63;5.33;;;28.30;46.20;;;;;;6200775;28;20313;-80
2023/09/06 12:25:24;;;;;;;5.40;5.10;;;28.30;46.50;;;;;;6208172;28;20246;-79
2023/09/06 12:28:29;;;;;;;5.50;5.15;;;28.50;45.60;;;;;;6214834;28;20243;-79
2023/09/06 12:31:32;;;;;;;6.20;5.82;;;28.30;46.10;;;;;;6209082;28;20263;-80
2023/09/06 12:34:36;;;;;;;6.30;5.53;;;28.40;46.50;;;;;;6210419;28;20235;-79
2023/09/06 12:37:40;;;;;;;7.82;5.82;;;28.50;46.50;;;;;;6207256;28;20246;-81
2023/09/06 12:40:43;;;;;;;6.10;5.80;;;28.50;46.90;;;;;;6210165;28;20231;-79
2023/09/06 12:43:47;;;;;;;5.67;5.37;;;28.60;46.60;;;;;;6193293;28;20232;-79
2023/09/06 12:46:50;;;;;;;5.80;5.37;;;28.60;46.70;;;;;;6201481;28;20239;-78
2023/09/06 12:49:54;;;;;;;6.53;6.18;;;28.60;46.70;;;;;;6198258;28;20638;-81
2023/09/06 12:53:00;;;;;;;6.78;5.60;;;28.70;46.20;;;;;;6206376;28;20377;-78
2023/09/06 12:56:04;;;;;;;5.28;5.03;;;28.90;46.30;;;;;;6213348;28;20237;-78
2023/09/06 12:59:08;;;;;;;5.53;5.18;;;28.70;45.50;;;;;;6213005;28;20239;-78
2023/09/06 13:02:11;;;;;;;5.32;5.00;;;28.70;46.10;;;;;;6209891;28;20679;-80
2023/09/06 13:05:19;;;;;;;5.30;5.00;;;28.90;46.20;;;;;;6213775;28;20243;-78
2023/09/06 13:08:23;;;;;;;5.50;5.07;;;28.90;46.60;;;;;;6198396;28;20235;-77
2023/09/06 13:11:28;;;;;;;5.32;4.93;;;29.00;46.30;;;;;;6208498;28;20242;-81
2023/09/06 13:14:32;;;;;;;5.65;5.35;;;29.00;46.40;;;;;;6198011;28;20316;-82
2023/09/06 13:17:35;;;;;;;5.78;5.38;;;29.00;46.20;;;;;;6210899;28;20240;-82
2023/09/06 13:20:38;;;;;;;5.93;5.30;;;29.00;45.70;;;;;;6208799;28;20240;-82
2023/09/06 13:23:41;;;;;;;5.43;5.07;;;28.90;46.10;;;;;;6204340;28;20599;-79
2023/09/06 13:26:47;;;;;;;5.82;5.47;;;28.90;46.40;;;;;;6210714;28;20254;-80
2023/09/06 13:29:55;;;;;;;4.97;4.65;;;28.90;45.30;;;;;;6210414;28;20315;-80
2023/09/06 13:32:58;;;;;;;5.63;5.22;;;28.90;45.30;;;;;;6207718;28;20292;-82
2023/09/06 13:36:01;;;;;;;5.93;4.93;;;29.00;45.20;;;;;;6182240;28;20405;-81
2023/09/06 13:39:05;;;;;;;5.03;4.80;;;29.00;45.90;;;;;;6209482;28;20247;-80
2023/09/06 13:42:08;;;;;;;5.05;4.65;;;29.10;46.30;;;;;;6210374;28;20243;-81
2023/09/06 13:45:14;;;;;;;5.30;4.80;;;29.10;45.70;;;;;;6206154;28;20244;-80
2023/09/06 13:48:17;;;;;;;4.78;4.53;;;29.00;45.10;;;;;;6204197;28;20247;-78
2023/09/06 13:51:20;;;;;;;3.92;3.83;;;29.00;44.70;;;;;;6211454;28;20258;-77
2023/09/06 13:54:24;;;;;;;4.75;4.22;;;29.00;43.30;;;;;;6210572;28;20683;-81
2023/09/06 13:57:28;;;;;;;4.60;4.40;;;29.00;43.80;;;;;;6202887;28;20870;-81
2023/09/06 14:00:36;;;;;;;5.20;4.82;;;28.90;44.20;;;;;;6210946;28;20235;-81
2023/09/06 14:03:39;;;;;;;4.72;4.30;;;29.00;44.00;;;;;;6214046;28;20239;-82
2023/09/06 14:06:44;;;;;;;5.13;4.72;;;29.00;44.40;;;;;;6204981;28;20790;-79
2023/09/06 14:09:47;;;;;;;4.22;3.83;;;29.10;44.70;;;;;;6210411;28;20317;-79
2023/09/06 14:12:50;;;;;;;5.15;4.70;;;29.20;44.20;;;;;;6208435;28;20232;-77
2023/09/06 14:15:55;;;;;;;5.78;5.18;;;29.30;44.10;;;;;;6209722;28;20231;-77
2023/09/06 14:18:58;;;;;;;4.55;4.15;;;29.40;44.50;;;;;;6209416;28;20239;-78
2023/09/06 14:22:08;;;;;;;4.38;4.15;;;29.40;44.60;;;;;;6209681;28;20234;-79
2023/09/06 14:25:13;;;;;;;5.45;4.38;;;29.40;44.40;;;;;;6207766;28;20250;-79
2023/09/06 14:28:16;;;;;;;4.78;4.53;;;29.50;44.90;;;;;;6207934;28;20243;-80
2023/09/06 14:31:23;;;;;;;4.57;4.38;;;29.50;44.30;;;;;;6205317;28;20226;-78
2023/09/06 14:34:27;;;;;;;3.90;3.70;;;29.50;44.50;;;;;;6210163;28;20238;-80
2023/09/06 14:37:30;;;;;;;4.43;4.03;;;29.50;45.00;;;;;;6210048;28;20239;-78
2023/09/06 14:40:38;;;;;;;4.97;4.68;;;29.50;44.40;;;;;;6208057;28;20304;-78
2023/09/06 14:43:41;;;;;;;4.22;3.95;;;29.50;43.30;;;;;;6208128;28;20240;-77
2023/09/06 14:46:48;;;;;;;4.25;3.85;;;29.60;43.00;;;;;;6209127;28;20270;-79
2023/09/06 14:49:51;;;;;;;4.55;4.15;;;29.70;43.90;;;;;;6203281;28;20231;-77
2023/09/06 14:52:54;;;;;;;4.05;3.75;;;29.70;43.70;;;;;;6215673;28;20238;-78
2023/09/06 14:56:00;;;;;;;6.82;4.28;;;29.70;44.50;;;;;;6211316;28;20633;-80
2023/09/06 14:59:03;;;;;;;3.85;3.65;;;29.50;44.20;;;;;;6211008;28;20271;-81
2023/09/06 15:02:08;;;;;;;3.67;3.47;;;29.50;43.80;;;;;;6218114;28;20681;-80
2023/09/06 15:05:11;;;;;;;3.88;3.78;;;29.40;42.70;;;;;;6216260;28;20262;-78
2023/09/06 15:08:15;;;;;;;4.38;4.07;;;29.30;42.60;;;;;;6200943;28;20277;-79
2023/09/06 15:11:18;;;;;;;3.60;3.50;;;29.10;42.70;;;;;;6219172;28;20262;-76
2023/09/06 15:14:21;;;;;;;3.83;3.72;;;29.10;43.20;;;;;;6213553;28;20270;-80
2023/09/06 15:17:25;;;;;;;4.00;3.88;;;29.10;44.50;;;;;;6214226;28;20230;-79
2023/09/06 15:20:29;;;;;;;4.35;4.25;;;29.10;43.60;;;;;;6209597;28;20696;-80
2023/09/06 15:23:32;;;;;;;6.88;4.35;;;29.00;44.20;;;;;;6211707;28;20242;-79
2023/09/06 15:26:36;;;;;;;4.50;4.30;;;28.90;44.00;;;;;;6211205;28;20246;-78
2023/09/06 15:29:44;;;;;;;4.78;4.57;;;28.90;44.70;;;;;;6216833;28;20848;-79
2023/09/06 15:32:49;;;;;;;6.18;4.60;;;28.70;44.50;;;;;;6206870;28;20742;-80
2023/09/06 15:35:54;;;;;;;4.60;4.43;;;28.60;44.30;;;;;;6210628;28;20227;-78
2023/09/06 15:38:57;;;;;;;6.25;4.75;;;28.50;45.00;;;;;;6199594;28;20247;-76
2023/09/06 15:42:00;;;;;;;4.20;4.00;;;28.30;46.00;;;;;;6211949;28;20258;-76
2023/09/06 15:45:08;;;;;;;4.20;4.10;;;28.30;44.90;;;;;;6205090;28;20609;-75
2023/09/06 15:48:12;;;;;;;4.13;3.92;;;28.20;45.30;;;;;;6212369;28;20325;-76
2023/09/06 15:51:17;;;;;;;4.45;4.25;;;28.00;45.90;;;;;;6208594;28;20794;-77
2023/09/06 15:54:21;;;;;;;5.97;4.28;;;27.90;45.80;;;;;;6213531;28;20248;-77
2023/09/06 15:57:24;;;;;;;4.05;3.85;;;27.70;46.20;;;;;;6211702;28;20296;-77
2023/09/06 16:00:27;;;;;;;4.15;3.90;;;27.50;45.10;;;;;;6207277;28;20254;-75
2023/09/06 16:03:36;;;;;;;4.10;4.00;;;27.50;45.70;;;;;;6210395;28;20250;-75
2023/09/06 16:06:40;;;;;;;4.30;4.17;;;27.30;46.10;;;;;;6215394;28;20319;-75
2023/09/06 16:09:44;;;;;;;4.20;4.07;;;27.20;46.30;;;;;;6212012;28;20246;-75